createdAt,value
2017-03-16T00:00:03.048Z,5.93
2017-03-16T00:15:03.182Z,5.71
2017-03-16T00:30:03.362Z,5.54
2017-03-16T00:45:03.012Z,5.42
2017-03-16T01:00:02.755Z,5.32
2017-03-16T01:15:02.461Z,5.23
2017-03-16T01:30:02.516Z,5.18
2017-03-16T01:45:03.416Z,4.97
2017-03-16T02:00:03.111Z,4.87
2017-03-16T02:15:02.844Z,4.75
2017-03-16T02:30:02.705Z,4.63
2017-03-16T02:45:02.410Z,4.48
2017-03-16T03:00:03.103Z,4.39
2017-03-16T03:15:03.401Z,4.21
2017-03-16T03:30:03.235Z,4.08
2017-03-16T03:45:02.988Z,3.94
2017-03-16T04:00:02.659Z,3.75
2017-03-16T04:15:03.192Z,3.5
2017-03-16T04:30:03.098Z,3.32
2017-03-16T04:45:02.771Z,3.23
2017-03-16T05:00:02.548Z,3.15
2017-03-16T05:15:02.678Z,3.06
2017-03-16T05:30:02.820Z,3.01
2017-03-16T05:45:02.497Z,3.02
2017-03-16T06:00:02.757Z,3.12
2017-03-16T06:15:02.755Z,3.19
2017-03-16T06:30:02.935Z,3.31
2017-03-16T06:45:02.603Z,3.54
2017-03-16T07:00:03.515Z,3.8
2017-03-16T07:15:02.392Z,4.07
2017-03-16T07:30:02.376Z,4.43
2017-03-16T07:45:03.089Z,4.94
2017-03-16T08:00:03.012Z,5.5
2017-03-16T08:15:03.148Z,6.08
2017-03-16T08:30:03.458Z,6.87
2017-03-16T08:45:03.154Z,7.39
2017-03-16T09:00:02.897Z,7.92
2017-03-16T09:15:08.289Z,8.64
2017-03-16T09:30:03.249Z,9.08
2017-03-16T09:45:02.858Z,9.61
2017-03-16T10:00:02.552Z,9.9
2017-03-16T10:15:02.811Z,10.16
2017-03-16T10:30:02.719Z,13.45
2017-03-16T10:45:02.407Z,15.18
2017-03-16T11:00:04.442Z,15.42
2017-03-16T11:15:02.527Z,14.29
2017-03-16T11:30:02.786Z,14.74
2017-03-16T11:45:02.522Z,15.07
2017-03-16T12:00:03.116Z,15.19
2017-03-16T12:15:02.359Z,15.44
2017-03-16T12:30:02.344Z,15.45
2017-03-16T12:45:03.087Z,15.13
2017-03-16T13:00:02.746Z,15.07
2017-03-16T13:15:02.511Z,14.8
2017-03-16T13:30:02.698Z,14.28
2017-03-16T13:45:02.456Z,14.41
2017-03-16T14:00:03.438Z,14.81
2017-03-16T14:15:03.138Z,15.13
2017-03-16T14:30:03.104Z,15.43
2017-03-16T14:45:02.493Z,15.27
2017-03-16T15:00:03.200Z,15.34
2017-03-16T15:15:03.181Z,15.38
2017-03-16T15:30:03.079Z,15.36
2017-03-16T15:45:02.981Z,15.66
2017-03-16T16:00:02.661Z,15.13
2017-03-16T16:15:02.820Z,14.75
2017-03-16T16:30:02.736Z,14.48
2017-03-16T16:45:02.411Z,14.03
2017-03-16T17:00:03.228Z,13.53
2017-03-16T17:15:03.207Z,12.99
2017-03-16T17:30:03.015Z,12.35
2017-03-16T17:45:02.675Z,11.73
2017-03-16T18:00:02.390Z,11.18
2017-03-16T21:30:02.318Z,8.6
2017-03-16T21:45:03.064Z,8.58
2017-03-16T22:00:02.979Z,8.33
2017-03-16T22:15:02.962Z,8.15
2017-03-16T22:30:03.245Z,7.97
2017-03-16T23:00:02.462Z,7.83
2017-03-16T23:15:02.746Z,7.83
2017-03-16T23:30:02.904Z,7.74
2017-03-16T23:45:02.803Z,7.69
